createdAt,value
2019-03-13T00:04:30.979Z,1.83
2019-03-13T00:09:35.253Z,7.17
2019-03-13T00:14:39.476Z,2.67
2019-03-13T00:19:43.704Z,2.23
2019-03-13T00:24:47.972Z,2.10
2019-03-13T00:29:52.212Z,1.90
2019-03-13T00:34:56.429Z,1.60
2019-03-13T00:40:00.658Z,2.87
2019-03-13T00:45:05.392Z,1.60
2019-03-13T00:50:09.670Z,2.00
2019-03-13T00:55:13.893Z,2.20
2019-03-13T01:00:32.341Z,1.50
2019-03-13T01:05:47.996Z,2.53
2019-03-13T01:10:52.210Z,3.13
2019-03-13T01:15:56.434Z,1.77
2019-03-13T01:21:00.653Z,2.40
2019-03-13T01:26:04.956Z,3.90
2019-03-13T01:31:20.691Z,2.03
2019-03-13T01:36:25.307Z,1.90
2019-03-13T01:41:29.516Z,2.00
2019-03-13T01:46:33.758Z,1.50
2019-03-13T01:51:38.006Z,1.80
2019-03-13T01:56:42.225Z,2.20
2019-03-13T02:01:47.449Z,1.87
2019-03-13T02:06:51.695Z,2.20
2019-03-13T02:11:55.939Z,2.20
2019-03-13T02:17:00.169Z,2.73
2019-03-13T02:22:04.419Z,2.17
2019-03-13T02:27:08.708Z,2.00
2019-03-13T02:32:12.946Z,2.13
2019-03-13T02:37:17.164Z,2.13
2019-03-13T02:42:21.381Z,2.10
2019-03-13T02:47:25.623Z,2.43
2019-03-13T02:52:29.841Z,2.47
2019-03-13T02:57:34.054Z,2.50
2019-03-13T03:02:57.231Z,2.50
2019-03-13T03:08:01.464Z,2.20
2019-03-13T03:13:05.690Z,2.50
2019-03-13T03:18:09.911Z,2.50
2019-03-13T03:23:14.135Z,2.30
2019-03-13T03:28:18.358Z,2.17
2019-03-13T03:33:22.635Z,2.30
2019-03-13T03:38:26.880Z,1.33
2019-03-13T03:43:40.406Z,1.40
2019-03-13T03:48:37.056Z,1.27
2019-03-13T03:53:41.293Z,1.00
2019-03-13T03:58:45.518Z,1.20
2019-03-13T04:03:49.881Z,1.00
2019-03-13T04:08:54.103Z,1.13
2019-03-13T04:13:58.327Z,1.10
2019-03-13T04:19:02.545Z,1.30
2019-03-13T04:24:06.793Z,1.30
2019-03-13T04:29:11.001Z,1.87
2019-03-13T04:34:15.237Z,1.60
2019-03-13T04:39:19.451Z,1.70
2019-03-13T04:44:23.688Z,1.40
2019-03-13T04:49:27.925Z,1.60
2019-03-13T04:54:32.140Z,2.00
2019-03-13T04:59:36.362Z,1.70
2019-03-13T05:04:40.614Z,2.10
2019-03-13T05:09:44.853Z,2.10
2019-03-13T05:14:49.062Z,2.10
2019-03-13T05:19:53.269Z,1.50
2019-03-13T05:24:57.483Z,1.10
2019-03-13T05:30:01.725Z,1.73
2019-03-13T05:35:06.245Z,2.20
2019-03-13T05:40:10.653Z,2.63
2019-03-13T05:45:15.010Z,2.00
2019-03-13T05:50:19.263Z,2.30
2019-03-13T05:55:23.494Z,2.03
2019-03-13T06:00:29.723Z,2.37
2019-03-13T06:05:33.928Z,1.90
2019-03-13T06:10:38.339Z,1.90
2019-03-13T06:15:42.556Z,2.10
2019-03-13T06:20:46.784Z,2.20
2019-03-13T06:25:51.020Z,1.90
2019-03-13T06:30:55.233Z,1.77
2019-03-13T06:35:59.467Z,2.43
2019-03-13T06:41:05.190Z,2.23
2019-03-13T06:46:09.599Z,2.50
2019-03-13T06:51:13.819Z,1.90
2019-03-13T06:56:18.050Z,2.00
2019-03-13T07:01:39.855Z,2.00
2019-03-13T07:07:00.116Z,2.40
2019-03-13T07:12:19.098Z,2.50
2019-03-13T07:17:29.889Z,2.47
2019-03-13T07:22:56.147Z,2.50
2019-03-13T07:28:10.602Z,2.43
2019-03-13T07:33:40.063Z,2.53
2019-03-13T07:38:53.061Z,3.13
2019-03-13T07:44:25.192Z,3.63
2019-03-13T07:49:51.123Z,2.80
2019-03-13T07:55:14.292Z,3.03
2019-03-13T08:00:31.622Z,3.60
2019-03-13T08:06:00.875Z,2.90
2019-03-13T08:11:24.051Z,2.33
2019-03-13T08:17:02.236Z,2.50
2019-03-13T08:22:24.051Z,3.23
2019-03-13T08:27:38.257Z,3.17
2019-03-13T08:32:50.544Z,2.60
2019-03-13T08:38:16.716Z,2.70
2019-03-13T08:43:30.323Z,2.00
2019-03-13T08:48:53.515Z,2.37
2019-03-13T08:54:19.878Z,1.80
2019-03-13T08:59:29.498Z,1.97
2019-03-13T09:04:51.262Z,2.00
2019-03-13T09:10:14.444Z,1.93
2019-03-13T09:15:43.857Z,2.10
2019-03-13T09:21:09.954Z,1.70
2019-03-13T09:26:33.126Z,2.20
2019-03-13T09:32:05.584Z,2.17
2019-03-13T09:37:26.270Z,2.33
2019-03-13T09:43:01.876Z,2.17
2019-03-13T09:48:24.184Z,1.93
2019-03-13T09:53:33.252Z,1.53
2019-03-13T09:58:43.224Z,2.30
2019-03-13T10:04:02.420Z,1.60
2019-03-13T10:09:26.364Z,1.93
2019-03-13T10:15:00.546Z,2.03
2019-03-13T10:20:16.949Z,1.33
2019-03-13T10:25:30.510Z,2.37
2019-03-13T10:30:56.580Z,1.50
2019-03-13T10:36:32.214Z,1.40
2019-03-13T10:42:01.498Z,1.70
2019-03-13T10:47:18.281Z,1.57
2019-03-13T10:52:50.604Z,1.70
2019-03-13T10:58:16.103Z,1.40
2019-03-13T11:03:46.597Z,1.67
2019-03-13T11:09:15.785Z,1.67
2019-03-13T11:14:38.977Z,1.93
2019-03-13T11:20:02.150Z,1.37
2019-03-13T11:25:25.348Z,2.40
2019-03-13T11:30:40.092Z,2.00
2019-03-13T11:36:21.465Z,1.70
2019-03-13T11:41:35.278Z,1.73
2019-03-13T11:46:58.451Z,1.73
2019-03-13T11:52:20.695Z,2.10
2019-03-13T11:57:39.365Z,1.37
2019-03-13T12:03:05.766Z,1.60
2019-03-13T12:08:28.941Z,1.53
2019-03-13T12:13:46.554Z,1.90
2019-03-13T12:19:05.637Z,1.43
2019-03-13T12:24:31.597Z,1.30
2019-03-13T12:29:54.781Z,1.57
2019-03-13T12:35:12.288Z,1.53
2019-03-13T12:40:37.210Z,1.60
2019-03-13T12:45:49.255Z,1.80
2019-03-13T12:51:12.447Z,1.90
2019-03-13T12:56:32.255Z,1.87
2019-03-13T13:01:58.598Z,1.57
2019-03-13T13:07:19.831Z,1.60
2019-03-13T13:12:42.548Z,1.67
2019-03-13T13:17:54.073Z,1.90
2019-03-13T13:22:58.328Z,1.83
2019-03-13T13:28:02.569Z,1.67
2019-03-13T13:33:06.790Z,1.83
2019-03-13T13:38:11.040Z,1.77
2019-03-13T13:43:15.300Z,1.80
2019-03-13T13:48:19.704Z,2.00
2019-03-13T13:53:23.939Z,1.90
2019-03-13T13:58:28.740Z,2.20
2019-03-13T14:03:33.022Z,2.17
2019-03-13T14:08:37.330Z,1.83
2019-03-13T14:13:41.546Z,2.00
2019-03-13T14:18:45.772Z,1.00
2019-03-13T14:23:59.350Z,2.00
2019-03-13T14:29:03.560Z,1.83
2019-03-13T14:34:07.910Z,1.60
2019-03-13T14:39:12.193Z,1.77
2019-03-13T14:44:16.438Z,2.37
2019-03-13T14:49:20.663Z,1.80
2019-03-13T14:54:24.899Z,1.10
2019-03-13T14:59:29.131Z,1.57
2019-03-13T15:04:33.382Z,1.60
2019-03-13T15:09:39.340Z,1.63
2019-03-13T15:14:43.771Z,2.20
2019-03-13T15:19:48.008Z,1.33
2019-03-13T15:24:52.226Z,1.50
2019-03-13T15:29:56.473Z,1.40
2019-03-13T15:35:00.691Z,1.60
2019-03-13T15:40:05.270Z,1.80
2019-03-13T15:45:11.736Z,1.33
2019-03-13T15:50:16.318Z,1.43
2019-03-13T15:55:20.604Z,1.50
2019-03-13T16:00:25.516Z,1.67
2019-03-13T16:05:29.729Z,2.00
2019-03-13T16:10:33.952Z,1.50
2019-03-13T16:15:38.727Z,1.93
2019-03-13T16:20:42.957Z,1.50
2019-03-13T16:25:47.194Z,1.77
2019-03-13T16:30:51.901Z,2.10
2019-03-13T16:35:56.142Z,2.10
2019-03-13T16:41:00.392Z,1.70
2019-03-13T16:46:04.618Z,1.70
2019-03-13T16:51:08.867Z,1.87
2019-03-13T16:56:13.120Z,3.43
2019-03-13T17:01:17.324Z,1.20
2019-03-13T17:06:21.626Z,1.70
2019-03-13T17:11:26.337Z,2.13
2019-03-13T17:16:30.670Z,2.27
2019-03-13T17:21:35.190Z,2.00
2019-03-13T17:26:39.489Z,1.97
2019-03-13T17:31:43.706Z,1.80
2019-03-13T17:36:47.944Z,2.10
2019-03-13T17:41:52.183Z,2.30
2019-03-13T17:46:56.412Z,2.43
2019-03-13T17:52:00.652Z,2.20
2019-03-13T17:57:04.875Z,2.27
2019-03-13T18:02:09.108Z,2.30
2019-03-13T18:07:13.328Z,2.20
2019-03-13T18:12:17.668Z,2.43
2019-03-13T18:17:21.929Z,2.00
2019-03-13T18:22:26.148Z,3.13
2019-03-13T18:27:30.378Z,2.00
2019-03-13T18:32:41.612Z,2.30
2019-03-13T18:37:40.585Z,2.17
2019-03-13T18:42:44.836Z,2.17
2019-03-13T18:47:49.056Z,2.27
2019-03-13T18:52:53.600Z,2.03
2019-03-13T18:57:57.840Z,1.70
2019-03-13T19:03:02.083Z,1.97
2019-03-13T19:08:06.755Z,2.13
2019-03-13T19:13:11.016Z,2.03
2019-03-13T19:18:15.283Z,2.07
2019-03-13T19:23:19.533Z,2.20
2019-03-13T19:28:23.982Z,2.30
2019-03-13T19:33:28.502Z,1.97
2019-03-13T19:38:33.027Z,1.90
2019-03-13T19:43:37.313Z,3.23
2019-03-13T19:48:41.634Z,1.77
2019-03-13T19:53:46.291Z,3.47
2019-03-13T19:58:51.231Z,2.53
2019-03-13T20:03:56.160Z,2.10
2019-03-13T20:09:00.969Z,2.10
2019-03-13T20:14:05.936Z,2.23
2019-03-13T20:19:11.373Z,1.77
2019-03-13T20:24:16.602Z,2.33
2019-03-13T20:29:21.870Z,2.47
2019-03-13T20:34:27.383Z,2.00
2019-03-13T20:39:32.362Z,2.80
2019-03-13T20:44:37.418Z,1.50
2019-03-13T20:49:42.521Z,1.97
2019-03-13T20:54:47.303Z,1.77
2019-03-13T20:59:51.600Z,1.50
2019-03-13T21:04:56.480Z,2.43
2019-03-13T21:10:00.919Z,2.00
2019-03-13T21:15:05.868Z,1.80
2019-03-13T21:20:11.842Z,2.30
2019-03-13T21:25:16.385Z,2.53
2019-03-13T21:30:22.427Z,2.23
2019-03-13T21:35:26.892Z,3.10
2019-03-13T21:40:32.474Z,3.00
2019-03-13T21:45:41.393Z,2.53
2019-03-13T21:50:42.871Z,2.97
2019-03-13T21:55:47.104Z,2.87
2019-03-13T22:00:51.400Z,2.37
2019-03-13T22:05:55.635Z,3.03
2019-03-13T22:10:59.873Z,3.23
2019-03-13T22:16:04.302Z,3.00
2019-03-13T22:21:08.537Z,2.90
2019-03-13T22:26:12.783Z,3.47
2019-03-13T22:31:17.183Z,4.10
2019-03-13T22:36:21.547Z,3.43
2019-03-13T22:41:25.761Z,2.57
2019-03-13T22:46:29.989Z,3.63
2019-03-13T22:51:35.831Z,3.80
2019-03-13T22:56:40.214Z,4.53
2019-03-13T23:01:44.857Z,4.00
2019-03-13T23:06:49.102Z,3.70
2019-03-13T23:11:53.324Z,4.60
2019-03-13T23:16:57.543Z,4.40
2019-03-13T23:22:01.833Z,3.67
2019-03-13T23:27:06.057Z,4.17
2019-03-13T23:32:10.296Z,4.37
2019-03-13T23:37:14.519Z,4.30
2019-03-13T23:42:18.745Z,4.17
2019-03-13T23:47:22.985Z,4.00
2019-03-13T23:52:27.180Z,4.27
2019-03-13T23:57:31.430Z,4.20
